Data for 04/15/2008

Time Sea-Level Adjusted Pressure Absolute Pressure Temperature Relative Humidity Dew Point   
(mb) (inHg) (mb) (inHg) (C) (F) (%) (C) (F)
00:05 1001 29.56 830 24.51 12 53.5 31 -4.6 23.7
00:10 1001 29.56 830 24.51 12.6 54.7 30 -4.3 24.3
00:15 1001 29.56 830 24.51 12.5 54.4 31 -4.2 24.5
00:20 1001 29.56 830 24.51 12 53.7 31 -4.6 23.8
00:25 1001 29.56 830 24.51 12.1 53.8 31 -4.7 23.6
00:30 1001 29.56 830 24.51 12.1 53.8 31 -4.5 24
00:35 1001 29.56 830 24.51 11.8 53.3 32 -4.3 24.2
00:40 1001 29.56 830 24.51 11.5 52.8 32 -4.6 23.8
00:45 1001 29.56 830 24.51 11.5 52.6 32 -4.6 23.6
00:50 1000 29.53 830 24.51 11.4 52.6 32 -4.6 23.8
00:55 1000 29.53 830 24.51 11.3 52.3 33 -4.4 24
01:00 1000 29.53 829 24.48 10.9 51.6 33 -4.6 23.7
01:05 1000 29.53 829 24.48 10.6 51.1 34 -4.5 24
01:10 1000 29.53 829 24.48 10.5 51 33 -4.9 23.2
01:15 1000 29.53 829 24.48 10.7 51.3 33 -4.7 23.5
01:20 1000 29.53 829 24.48 10.7 51.2 34 -4.6 23.7
01:25 1000 29.53 829 24.48 10.5 50.8 35 -4.5 23.9
01:30 1000 29.53 829 24.48 10.5 50.8 35 -4.5 24
01:35 1000 29.53 829 24.48 10.6 51.1 34 -4.5 23.9
01:40 1000 29.53 829 24.48 10.9 51.7 35 -4 24.8
01:45 1000 29.53 829 24.48 11 51.8 37 -3.2 26.3
01:50 1000 29.53 829 24.48 11.2 52.1 36 -3.4 25.9
01:55 1000 29.53 829 24.48 11.3 52.4 36 -3.1 26.4
02:00 1000 29.53 829 24.48 11.4 52.4 37 -2.9 26.7
02:05 1000 29.53 829 24.48 11.4 52.4 37 -2.7 27.2
02:10 1000 29.53 829 24.48 11.2 52.2 38 -2.4 27.7
02:15 1000 29.53 830 24.51 10.9 51.7 39 -2.4 27.7
02:20 1001 29.56 830 24.51 10.9 51.5 40 -2.2 28.1
02:25 1001 29.56 830 24.51 10.3 50.5 45 -1 30.2
02:30 1001 29.56 830 24.51 9.8 49.7 47 -0.9 30.3
02:35 1001 29.56 830 24.51 9.5 49 49 -0.6 30.9
02:40 1001 29.56 831 24.54 9.3 48.7 51 -0.2 31.6
02:45 1002 29.59 831 24.54 9 48.2 54 0.2 32.3
02:50 1002 29.59 831 24.54 8.7 47.7 54 0.1 32.1
02:55 1002 29.59 832 24.57 8.7 47.6 56 0.3 32.5
03:00 1003 29.62 832 24.57 8.4 47.2 56 0.2 32.4
03:05 1003 29.62 832 24.57 8.3 47 56 0.1 32.2
03:10 1003 29.62 832 24.57 8.1 46.6 56 -0 32
03:15 1003 29.62 832 24.57 7.7 45.8 57 -0.4 31.3
03:20 1003 29.62 832 24.57 7.6 45.6 57 -0.5 31.1
03:25 1003 29.62 832 24.57 7.5 45.6 58 -0.2 31.6
03:30 1003 29.62 833 24.6 7.2 45 59 -0.4 31.3
03:35 1003 29.62 833 24.6 6.9 44.4 60 -0.3 31.5
03:40 1004 29.65 833 24.6 7 44.5 60 -0.2 31.7
03:45 1004 29.65 833 24.6 6.8 44.2 60 -0.3 31.4
03:50 1004 29.65 833 24.6 6.6 43.8 60 -0.5 31.1
03:55 1004 29.65 833 24.6 6.4 43.6 62 -0.4 31.3
04:00 1004 29.65 833 24.6 6.2 43.1 61 -0.7 30.7
04:05 1004 29.65 834 24.63 5.6 42.1 64 -0.6 30.9
04:10 1005 29.68 834 24.63 5.5 41.9 65 -0.6 30.9
04:15 1005 29.68 834 24.63 5.4 41.7 67 -0.2 31.6
04:20 1005 29.68 834 24.63 5.2 41.3 71 0.4 32.7
04:25 1005 29.68 834 24.63 4.7 40.5 76 0.9 33.6
04:30 1005 29.68 834 24.63 4.2 39.6 80 1 33.9
04:35 1005 29.68 834 24.63 3.8 38.9 83 1.2 34.2
04:40 1005 29.68 834 24.63 3.6 38.4 86 1.4 34.5
04:45 1005 29.68 834 24.63 3.5 38.3 87 1.5 34.8
04:50 1005 29.68 834 24.63 3.3 37.9 88 1.5 34.8
04:55 1005 29.68 834 24.63 3.1 37.5 90 1.6 34.9
05:00 1005 29.68 834 24.63 2.8 37 91 1.5 34.6
05:05 1005 29.68 834 24.63 2.3 36.1 93 1.2 34.1
05:10 1005 29.68 834 24.63 1.9 35.4 93 0.9 33.7
05:15 1005 29.68 834 24.63 1.5 34.7 95 0.8 33.4
05:20 1005 29.68 834 24.63 1.4 34.5 95 0.7 33.3
05:25 1005 29.68 834 24.63 1.2 34.1 96 0.6 33.1
05:30 1005 29.68 834 24.63 1 33.9 97 0.6 33.1
05:35 1005 29.68 834 24.63 1 33.7 98 0.6 33.1
05:40 1005 29.68 834 24.63 0.9 33.6 98 0.6 33.1
05:45 1005 29.68 834 24.63 0.8 33.5 98 0.6 33
05:50 1005 29.68 834 24.63 0.8 33.4 98 0.5 33
05:55 1005 29.68 834 24.63 0.7 33.3 99 0.5 33
06:00 1005 29.68 834 24.63 0.7 33.2 99 0.5 33
06:05 1005 29.68 834 24.63 0.6 33.1 99 0.5 32.9
06:10 1005 29.68 834 24.63 0.5 33 100 0.5 32.8
06:15 1005 29.68 834 24.63 0.5 32.9 100 0.5 32.9
06:20 1005 29.68 835 24.66 0.5 32.9 100 0.5 32.9
06:25 1005 29.68 834 24.63 0.5 32.9 164 7.5 45.5
06:30 1005 29.68 835 24.66 0.4 32.7 164 7.4 45.3
06:35 1005 29.68 835 24.66 0.4 32.7 164 7.4 45.3
06:40 1005 29.68 834 24.63 0.4 32.7 164 7.4 45.3
06:45 1005 29.68 835 24.66 0.4 32.7 164 7.4 45.3
06:50 1006 29.71 835 24.66 0.3 32.5 164 7.3 45.2
06:55 1006 29.71 835 24.66 0.2 32.4 164 7.2 45
07:00 1006 29.71 835 24.66 0.3 32.5 164 7.3 45.1
07:05 1006 29.71 835 24.66 0.2 32.4 164 7.2 45
07:10 1006 29.71 835 24.66 0.2 32.4 164 7.2 45
07:15 1006 29.71 835 24.66 0.2 32.4 164 7.2 45
07:20 1006 29.71 835 24.66 0.2 32.4 164 7.2 45
07:25 1006 29.71 835 24.66 0.2 32.3 164 7.2 45
07:30 1006 29.71 835 24.66 0.1 32.3 164 7.2 44.9
07:35 1006 29.71 835 24.66 0.1 32.2 164 7.1 44.8
07:40 1006 29.71 836 24.69 0.1 32.3 164 7.2 44.9
07:45 1006 29.71 836 24.69 0.2 32.3 164 7.2 44.9
07:50 1006 29.71 835 24.66 0.1 32.2 164 7.1 44.8
07:55 1006 29.71 835 24.66 0.1 32.1 164 7.1 44.7
08:00 1006 29.71 835 24.66 0.1 32.1 164 7.1 44.7
08:05 1006 29.71 836 24.69 -0.1 31.9 164 6.9 44.5
08:10 1007 29.74 836 24.69 -0.3 31.5 164 6.7 44.1
08:15 1006 29.71 835 24.66 -0.5 31.2 164 6.5 43.7
08:20 1006 29.71 836 24.69 -0.6 31 164 6.4 43.5
08:25 1007 29.74 836 24.69 -0.6 30.8 164 6.3 43.4
08:30 1007 29.74 836 24.69 -0.7 30.8 164 6.3 43.3
08:35 1007 29.74 836 24.69 -0.6 30.8 164 6.3 43.4
08:40 1006 29.71 836 24.69 -0.5 31 164 6.4 43.6
08:45 1006 29.71 836 24.69 -0.5 31.2 164 6.5 43.7
08:50 1007 29.74 836 24.69 -0.4 31.3 164 6.6 43.9
08:55 1006 29.71 836 24.69 -0.3 31.4 164 6.6 44
09:00 1007 29.74 836 24.69 -0.4 31.3 164 6.6 43.9
09:05 1007 29.74 836 24.69 -0.4 31.3 164 6.6 43.9
09:10 1007 29.74 836 24.69 -0.3 31.5 164 6.7 44.1
09:15 1007 29.74 836 24.69 -0.4 31.3 164 6.6 43.8
09:20 1007 29.74 836 24.69 -0.8 30.6 164 6.2 43.1
09:25 1007 29.74 836 24.69 -1 30.1 164 5.9 42.7
09:30 1007 29.74 836 24.69 -0.8 30.6 164 6.2 43.2
09:35 1007 29.74 836 24.69 -0.5 31.2 164 6.5 43.7
09:40 1007 29.74 836 24.69 -0.4 31.3 164 6.6 43.9
09:45 1007 29.74 836 24.69 -0.3 31.5 164 6.7 44.1
09:50 1007 29.74 836 24.69 -0.3 31.5 164 6.7 44.1
09:55 1007 29.74 836 24.69 -0.2 31.7 164 6.8 44.3
10:00 1007 29.74 836 24.69 0.2 32.4 164 7.3 45.1
10:05 1007 29.74 836 24.69 0.6 33.1 164 7.7 45.8
10:10 1007 29.74 836 24.69 0.8 33.5 164 7.8 46.1
10:15 1007 29.74 836 24.69 0.7 33.3 164 7.8 46
10:20 1007 29.74 836 24.69 0.8 33.4 164 7.8 46.1
10:25 1007 29.74 836 24.69 0.8 33.4 164 7.8 46.1
10:30 1007 29.74 836 24.69 0.5 32.9 164 7.6 45.6
10:35 1007 29.74 836 24.69 0.3 32.5 164 7.3 45.1
10:40 1007 29.74 836 24.69 0.1 32.2 164 7.1 44.9
10:45 1007 29.74 836 24.69 -0.1 31.8 164 6.9 44.4
10:50 1007 29.74 836 24.69 -0.2 31.7 164 6.8 44.3
10:55 1007 29.74 836 24.69 -0.3 31.4 164 6.7 44
11:00 1007 29.74 836 24.69 -0.3 31.5 164 6.7 44.1
11:05 1007 29.74 836 24.69 -0.2 31.6 164 6.8 44.2
11:10 1007 29.74 836 24.69 -0.1 31.7 164 6.9 44.3
11:15 1007 29.74 836 24.69 -0.1 31.8 164 6.9 44.4
11:20 1007 29.74 836 24.69 -0.1 31.7 164 6.9 44.4
11:25 1007 29.74 836 24.69 -0.4 31.3 164 6.6 43.9
11:30 1007 29.74 836 24.69 -0.3 31.4 164 6.7 44
11:35 1007 29.74 836 24.69 -0.4 31.3 164 6.6 43.9
11:40 1007 29.74 836 24.69 -0.3 31.4 164 6.7 44
11:45 1007 29.74 836 24.69 -0.2 31.6 164 6.8 44.2
11:50 1007 29.74 836 24.69 -0.2 31.7 164 6.8 44.3
11:55 1007 29.74 836 24.69 -0.1 31.7 164 6.9 44.3
12:00 1007 29.74 836 24.69 -0.1 31.9 164 6.9 44.5
12:05 1007 29.74 836 24.69 0.1 32.2 164 7.1 44.8
12:10 1007 29.74 836 24.69 0.3 32.6 164 7.4 45.2
12:15 1007 29.74 836 24.69 0.4 32.8 164 7.4 45.4
12:20 1007 29.74 837 24.72 0.1 32.2 164 7.1 44.8
12:25 1007 29.74 837 24.72 0.2 32.3 164 7.2 44.9
12:30 1007 29.74 837 24.72 0.4 32.8 164 7.5 45.4
12:35 1007 29.74 837 24.72 0.5 32.8 164 7.5 45.5
12:40 1008 29.77 837 24.72 0.5 32.9 164 7.5 45.5
12:45 1008 29.77 837 24.72 0.1 32.2 164 7.1 44.8
12:50 1008 29.77 837 24.72 -0.1 31.9 164 6.9 44.5
12:55 1008 29.77 837 24.72 -0.2 31.7 164 6.8 44.3
13:00 1008 29.77 837 24.72 -0.1 31.8 164 6.9 44.4
13:05 1008 29.77 837 24.72 0 32 164 7 44.7
13:10 1008 29.77 837 24.72 -0.2 31.7 164 6.8 44.3
13:15 1008 29.77 837 24.72 0 32 164 7 44.6
13:20 1008 29.77 837 24.72 0.1 32.1 164 7.1 44.8
13:25 1008 29.77 837 24.72 -0.2 31.7 164 6.8 44.3
13:30 1008 29.77 837 24.72 -0.1 31.9 164 6.9 44.5
13:35 1008 29.77 837 24.72 -0 32 164 7 44.6
13:40 1008 29.77 838 24.75 -0 32 164 7 44.6
13:45 1009 29.8 838 24.75 -0 32 164 7 44.6
13:50 1009 29.8 838 24.75 -0.2 31.6 164 6.8 44.3
13:55 1009 29.8 838 24.75 -0.4 31.3 164 6.6 43.9
14:00 1009 29.8 838 24.75 -0.6 30.8 164 6.3 43.4
14:05 1009 29.8 838 24.75 -0.5 31.1 164 6.5 43.7
14:10 1009 29.8 838 24.75 -0.6 30.9 164 6.4 43.5
14:15 1009 29.8 838 24.75 -0.8 30.5 164 6.2 43.1
14:20 1009 29.8 838 24.75 -0.8 30.6 164 6.2 43.1
14:25 1009 29.8 838 24.75 -0.8 30.6 164 6.2 43.1
14:30 1009 29.8 838 24.75 -0.6 31 164 6.4 43.6
14:35 1009 29.8 838 24.75 -0.1 31.8 164 6.9 44.4
14:40 1009 29.8 838 24.75 0.3 32.6 164 7.4 45.3
14:45 1009 29.8 838 24.75 0.6 33.1 164 7.7 45.8
14:50 1009 29.8 838 24.75 0.5 32.9 164 7.5 45.5
14:55 1009 29.8 838 24.75 0.5 32.8 164 7.5 45.5
15:00 1009 29.8 838 24.75 0.7 33.2 164 7.7 45.9
15:05 1009 29.8 838 24.75 0.9 33.5 164 7.9 46.2
15:10 1009 29.8 838 24.75 1.3 34.3 164 8.3 47
15:15 1009 29.8 838 24.75 1.3 34.4 164 8.4 47.1
15:20 1009 29.8 838 24.75 1.5 34.8 164 8.6 47.5
15:25 1009 29.8 838 24.75 2 35.5 164 9.1 48.3
15:30 1009 29.8 838 24.75 2.3 36.1 164 9.4 48.9
15:35 1009 29.8 838 24.75 2.4 36.4 164 9.5 49.2
15:40 1009 29.8 838 24.75 2.6 36.6 164 9.7 49.5
15:45 1009 29.8 838 24.75 2.6 36.7 164 9.8 49.6
15:50 1009 29.8 838 24.75 2.3 36.1 164 9.4 49
15:55 1009 29.8 838 24.75 2.2 36 164 9.3 48.7
16:00 1009 29.8 838 24.75 2.3 36.1 164 9.4 48.9
16:05 1009 29.8 838 24.75 1.9 35.4 164 9 48.2
16:10 1009 29.8 838 24.75 1.4 34.6 164 8.5 47.3
16:15 1009 29.8 838 24.75 1.4 34.5 164 8.5 47.3
16:20 1009 29.8 838 24.75 1.4 34.4 164 8.4 47.2
16:25 1009 29.8 838 24.75 0.7 33.2 164 7.7 45.9
16:30 1009 29.8 838 24.75 0.4 32.7 164 7.4 45.4
16:35 1009 29.8 838 24.75 0.1 32.2 90 -1.4 29.5
16:40 1009 29.8 838 24.75 0.2 32.4 89 -1.3 29.6
16:45 1009 29.8 838 24.75 0.2 32.3 88 -1.5 29.2
16:50 1009 29.8 838 24.75 0.4 32.6 87 -1.6 29.1
16:55 1009 29.8 838 24.75 0.3 32.5 84 -2.2 28.1
17:00 1009 29.8 838 24.75 0.4 32.7 81 -2.4 27.7
17:05 1009 29.8 838 24.75 0.6 33 81 -2.4 27.7
17:10 1009 29.8 838 24.75 0.7 33.3 80 -2.4 27.6
17:15 1009 29.8 838 24.75 0.8 33.4 78 -2.6 27.4
17:20 1009 29.8 838 24.75 0.9 33.6 77 -2.7 27.2
17:25 1009 29.8 838 24.75 1 33.8 77 -2.6 27.3
17:30 1009 29.8 838 24.75 1.2 34.2 75 -2.7 27.1
17:35 1009 29.8 838 24.75 1.4 34.6 74 -2.7 27.1
17:40 1009 29.8 838 24.75 1.3 34.4 72 -3.1 26.4
17:45 1009 29.8 838 24.75 1.1 34 70 -3.7 25.4
17:50 1009 29.8 838 24.75 1.1 34 71 -3.5 25.6
17:55 1009 29.8 838 24.75 1.3 34.4 70 -3.6 25.5
18:00 1009 29.8 838 24.75 1.5 34.7 67 -3.9 25.1
18:05 1009 29.8 838 24.75 1.5 34.8 68 -3.8 25.2
18:10 1009 29.8 838 24.75 1.5 34.6 67 -4 24.8
18:15 1009 29.8 839 24.78 1.5 34.7 68 -3.9 25.1
18:20 1009 29.8 839 24.78 1.4 34.4 67 -4.1 24.7
18:25 1009 29.8 839 24.78 1.3 34.3 66 -4.4 24.2
18:30 1009 29.8 839 24.78 1.1 34.1 67 -4.4 24.1
18:35 1009 29.8 839 24.78 1.3 34.4 66 -4.2 24.4
18:40 1010 29.83 839 24.78 1.5 34.7 66 -4.2 24.5
18:45 1010 29.83 839 24.78 1.5 34.7 66 -4.2 24.4
18:50 1010 29.83 839 24.78 1.3 34.4 65 -4.5 23.9
18:55 1010 29.83 839 24.78 1.2 34.2 65 -4.7 23.5
19:00 1010 29.83 839 24.78 1.2 34.1 65 -4.8 23.4
19:05 1010 29.83 839 24.78 1 33.8 65 -4.9 23.1
19:10 1010 29.83 839 24.78 0.9 33.6 65 -5 23.1
19:15 1010 29.83 839 24.78 0.8 33.4 68 -4.4 24
19:20 1010 29.83 839 24.78 0.6 33.1 69 -4.5 23.9
19:25 1010 29.83 839 24.78 0.7 33.2 68 -4.6 23.8
19:30 1010 29.83 839 24.78 0.6 33 68 -4.6 23.7
19:35 1010 29.83 839 24.78 0.5 32.9 69 -4.6 23.7
19:40 1010 29.83 839 24.78 0.6 33 69 -4.5 23.8
19:45 1010 29.83 839 24.78 0.8 33.5 66 -4.8 23.3
19:50 1010 29.83 839 24.78 1 33.7 67 -4.5 23.9
19:55 1010 29.83 839 24.78 0.8 33.4 68 -4.5 23.9
20:00 1010 29.83 840 24.81 0.8 33.4 67 -4.7 23.6
20:05 1010 29.83 840 24.81 0.7 33.3 68 -4.5 23.8
20:10 1011 29.85 840 24.81 0.8 33.4 67 -4.6 23.8
20:15 1011 29.85 840 24.81 0.7 33.2 68 -4.6 23.8
20:20 1011 29.85 840 24.81 0.7 33.3 68 -4.5 23.9
20:25 1011 29.85 840 24.81 0.8 33.5 67 -4.6 23.6
20:30 1011 29.85 840 24.81 0.9 33.7 67 -4.5 23.8
20:35 1011 29.85 840 24.81 0.9 33.6 66 -4.8 23.4
20:40 1011 29.85 840 24.81 0.9 33.6 65 -4.9 23.2
20:45 1011 29.85 840 24.81 0.8 33.4 64 -5.3 22.5
20:50 1011 29.85 840 24.81 0.7 33.3 61 -5.9 21.4
20:55 1011 29.85 841 24.83 0.7 33.2 60 -6.2 20.8
21:00 1011 29.85 841 24.83 0.6 33.1 59 -6.5 20.3
21:05 1012 29.88 841 24.83 0.7 33.2 56 -7 19.3
21:10 1012 29.88 841 24.83 0.6 33 56 -7.1 19.2
21:15 1012 29.88 841 24.83 0.4 32.7 60 -6.5 20.2
21:20 1012 29.88 841 24.83 0.1 32.1 62 -6.3 20.6
21:25 1012 29.88 841 24.83 -0.2 31.7 63 -6.4 20.5
21:30 1012 29.88 841 24.83 -0.2 31.6 64 -6.1 21
21:35 1012 29.88 841 24.83 -0.3 31.5 65 -6.1 21.1
21:40 1012 29.88 841 24.83 -0.4 31.4 64 -6.4 20.5
21:45 1012 29.88 842 24.86 -0.4 31.3 63 -6.6 20.1
21:50 1012 29.88 842 24.86 -0.4 31.3 61 -7.1 19.3
21:55 1013 29.91 842 24.86 -0.3 31.5 59 -7.3 18.9
22:00 1013 29.91 842 24.86 -0.3 31.5 59 -7.3 18.8
22:05 1013 29.91 842 24.86 -0.3 31.5 59 -7.4 18.7
22:10 1013 29.91 842 24.86 -0.4 31.3 58 -7.6 18.3
22:15 1013 29.91 842 24.86 -0.4 31.3 58 -7.6 18.3
22:20 1013 29.91 842 24.86 -0.5 31.1 58 -7.7 18.2
22:25 1013 29.91 842 24.86 -0.6 31 58 -7.8 18
22:30 1013 29.91 842 24.86 -0.6 31 58 -7.9 17.8
22:35 1013 29.91 842 24.86 -0.6 30.9 58 -7.8 17.9
22:40 1013 29.91 843 24.89 -1 30.2 61 -7.7 18.2
22:45 1013 29.91 843 24.89 -1.2 29.9 61 -7.7 18.1
22:50 1013 29.91 843 24.89 -1.2 29.8 61 -7.8 17.9
22:55 1014 29.94 843 24.89 -1.2 29.8 60 -8 17.6
23:00 1014 29.94 843 24.89 -1.2 29.9 60 -8 17.7
23:05 1014 29.94 843 24.89 -1.2 29.9 59 -8.3 17.1
23:10 1014 29.94 843 24.89 -1.4 29.6 58 -8.5 16.7
23:15 1014 29.94 843 24.89 -1.4 29.5 58 -8.6 16.5
23:20 1014 29.94 843 24.89 -1.6 29 58 -8.8 16.1
23:25 1014 29.94 843 24.89 -2 28.5 59 -9 15.7
23:30 1014 29.94 843 24.89 -2.1 28.2 59 -9 15.8
23:35 1014 29.94 843 24.89 -2.2 28.1 59 -9.1 15.7
23:40 1014 29.94 843 24.89 -2.2 28.1 60 -8.9 16.1
23:45 1014 29.94 843 24.89 -2.1 28.2 61 -8.6 16.6
23:50 1014 29.94 843 24.89 -2.1 28.1 62 -8.5 16.6
23:55 1014 29.94 843 24.89 -2.3 27.8 62 -8.6 16.5
24:00 1014 29.94 843 24.89 -2.5 27.6 62 -8.8 16.1